(°C)
16°
15°
15°
14°
14°
15°
17°
(°C)
15°
14°
14°
13°
13°
14°
16°
Z
Z
ZSZ
SZ
SZ
ZSZ
ZSZ
(km/h)
6-12
7-15
8-18
8-19
7-17
7-15
6-14
(mm)
0
0
0
0
0
0
0
(%)
0
0
0
0
0
0
0

Výška Slnka nad obzorom

/ -19°
sun-icon
UV 6
05:45
21:35
Spln (187°)
22:21
05:22

Správy METAR pre lokalitu 51.15°S 51.54°V (UARR)

Čas Podmienky Teplota/
Rosný bod
Vietor Viditeľnosť Počasie Oblaky Tlak Zmeniť Nespracované
MVFR 16°C / 14°C 260º 4kt 8000m - Clear 1005 No Significant change UARR 232000Z 26002MPS 8000 NSC 16/14 Q1005 R04/CLRD70 NOSIG RMK QFE750/1000
VFR 16°C / 14°C 260º 4kt >10km - Clouds and Visibility OK 1005 No Significant change UARR 231930Z 26002MPS CAVOK 16/14 Q1005 R04/CLRD70 NOSIG RMK QFE750/1000
VFR 17°C / 14°C 220º 4kt >10km - Clouds and Visibility OK 1005 No Significant change UARR 231900Z 22002MPS CAVOK 17/14 Q1005 R04/CLRD70 NOSIG RMK QFE750/1000
VFR 17°C / 14°C 210º 4kt >10km - Clouds and Visibility OK 1004 No Significant change UARR 231830Z 21002MPS CAVOK 17/14 Q1004 R04/CLRD70 NOSIG RMK QFE750/1000
VFR 18°C / 14°C variable 0kt >10km - Clouds and Visibility OK 1004 No Significant change UARR 231800Z 00000MPS CAVOK 18/14 Q1004 R04/CLRD70 NOSIG RMK QFE750/1000
VFR 18°C / 14°C variable 2kt >10km - Clouds and Visibility OK 1004 No Significant change UARR 231730Z VRB01MPS CAVOK 18/14 Q1004 R04/CLRD70 NOSIG RMK QFE749/0999
VFR 19°C / 14°C 90º 4kt >10km - Clouds and Visibility OK 1004 No Significant change UARR 231700Z 09002MPS CAVOK 19/14 Q1004 R04/CLRD70 NOSIG RMK QFE749/0999
VFR 20°C / 15°C 90º 6kt >10km - Clouds and Visibility OK 1003 No Significant change UARR 231630Z 09003MPS CAVOK 20/15 Q1003 R04/CLRD70 NOSIG RMK QFE749/0999
VFR 21°C / 14°C 80º 6kt >10km - Clouds and Visibility OK 1003 No Significant change UARR 231600Z 08003MPS CAVOK 21/14 Q1003 R04/CLRD70 NOSIG RMK QFE749/0999
VFR 22°C / 14°C 70º 8kt >10km - Clouds and Visibility OK 1003 No Significant change UARR 231530Z 07004MPS CAVOK 22/14 Q1003 R04/CLRD70 NOSIG RMK QFE749/0998
VFR 23°C / 12°C 60º 10kt >10km - Clouds and Visibility OK 1003 No Significant change UARR 231500Z 06005MPS CAVOK 23/12 Q1003 R04/CLRD70 NOSIG RMK QFE749/0998
VFR 23°C / 12°C 50º 12kt >10km - Clouds and Visibility OK 1002 No Significant change UARR 231430Z 05006MPS CAVOK 23/12 Q1002 R04/CLRD70 NOSIG RMK QFE748/0998
VFR 24°C / 12°C 50º 12kt >10km - Clouds and Visibility OK 1002 No Significant change UARR 231400Z 05006MPS CAVOK 24/12 Q1002 R04/CLRD70 NOSIG RMK QFE748/0998
VFR 23°C / 12°C 20º 12kt >10km - Clouds and Visibility OK 1002 No Significant change UARR 231330Z 02006MPS CAVOK 23/12 Q1002 R04/CLRD70 NOSIG RMK QFE748/0998
VFR 23°C / 13°C 20º 12kt >10km - Few Clouds 5000ft 1002 No Significant change UARR 231300Z 02006MPS 9999 FEW050CB 23/13 Q1002 R04/CLRD70 NOSIG RMK QFE748/0998
VFR 22°C / 15°C 30º 10kt >10km - Scattered Clouds 5000ft 1003 No Significant change UARR 231230Z 03005MPS 9999 SCT050CB 22/15 Q1003 R04/CLRD70 NOSIG RMK QFE749/0998
VFR 22°C / 15°C 30º variable 350º to 050º 10kt >10km - Scattered Clouds 5000ft 1003 No Significant change UARR 231200Z 03005MPS 350V050 9999 SCT050CB 22/15 Q1003 R04/CLRD70 NOSIG RMK QFE749/0999
VFR 21°C / 15°C 30º variable 350º to 070º 8kt >10km - Scattered Clouds 5000ft 1003 No Significant change UARR 231130Z 03004MPS 350V070 9999 SCT050CB 21/15 Q1003 R04/CLRD70 NOSIG RMK QFE749/0999
VFR 21°C / 16°C 10º 12kt >10km - Scattered Clouds 5000ft 1003 No Significant change UARR 231100Z 01006MPS 9999 SCT050CB 21/16 Q1003 R04/CLRD70 NOSIG RMK QFE749/0999
VFR 20°C / 16°C 10º 10kt >10km - Broken Clouds 5000ft 1003 No Significant change UARR 231030Z 01005MPS 9999 BKN050CB 20/16 Q1003 R04/CLRD70 NOSIG RMK QFE749/0999
VFR 20°C / 16°C 360º 12kt >10km - Overcast 5300ft 1003 No Significant change UARR 231000Z 36006MPS 9999 OVC053CB 20/16 Q1003 R04/CLRD70 NOSIG RMK QFE749/0998
VFR 20°C / 16°C 350º 12kt >10km Light Showers Rain 3.00mm precipitation Vertical Visibility of 0ft. 1003 Temporary: Broken Clouds 900ft. RMK QFE749/0998 UARR 230930Z 35006MPS 9999 -SHRA OVC051CB 20/16 Q1003 R04/CLRD70 TEMPO BKN009 RMK QFE749/0998
MVFR 20°C / 15°C 350º 12kt >10km - Broken Clouds 1800ft 1003 Temporary: Broken Clouds 900ft. RMK QFE749/0998 UARR 230900Z 35006MPS 9999 BKN018CB 20/15 Q1003 R04/CLRD70 TEMPO BKN009 RMK QFE749/0998
MVFR 20°C / 16°C 360º 12kt >10km - Broken Clouds 1900ft 1003 Temporary: Broken Clouds 900ft. RMK QFE748/0998 . Runway 04: Damp, 51-100% contamination with 1mm, friction coefficient 0.60. UARR 230830Z 36006MPS 9999 BKN019CB 20/16 Q1003 R04/190160 TEMPO BKN009 RMK QFE748/0998

MVFR

16°C / 14°C

[Viac]
Vietor 260º 4kt
Viditeľnosť 8000m
Počasie -
Oblaky Clear
Tlak 1005
Zmeniť No Significant change
Nespracované UARR 232000Z 26002MPS 8000 NSC 16/14 Q1005 R04/CLRD70 NOSIG RMK QFE750/1000

VFR

16°C / 14°C

[Viac]
Vietor 260º 4kt
Viditeľnosť >10km
Počasie -
Oblaky Clouds and Visibility OK
Tlak 1005
Zmeniť No Significant change
Nespracované UARR 231930Z 26002MPS CAVOK 16/14 Q1005 R04/CLRD70 NOSIG RMK QFE750/1000

VFR

17°C / 14°C

[Viac]
Vietor 220º 4kt
Viditeľnosť >10km
Počasie -
Oblaky Clouds and Visibility OK
Tlak 1005
Zmeniť No Significant change
Nespracované UARR 231900Z 22002MPS CAVOK 17/14 Q1005 R04/CLRD70 NOSIG RMK QFE750/1000

VFR

17°C / 14°C

[Viac]
Vietor 210º 4kt
Viditeľnosť >10km
Počasie -
Oblaky Clouds and Visibility OK
Tlak 1004
Zmeniť No Significant change
Nespracované UARR 231830Z 21002MPS CAVOK 17/14 Q1004 R04/CLRD70 NOSIG RMK QFE750/1000

VFR

18°C / 14°C

[Viac]
Vietor variable 0kt
Viditeľnosť >10km
Počasie -
Oblaky Clouds and Visibility OK
Tlak 1004
Zmeniť No Significant change
Nespracované UARR 231800Z 00000MPS CAVOK 18/14 Q1004 R04/CLRD70 NOSIG RMK QFE750/1000

VFR

18°C / 14°C

[Viac]
Vietor variable 2kt
Viditeľnosť >10km
Počasie -
Oblaky Clouds and Visibility OK
Tlak 1004
Zmeniť No Significant change
Nespracované UARR 231730Z VRB01MPS CAVOK 18/14 Q1004 R04/CLRD70 NOSIG RMK QFE749/0999

VFR

19°C / 14°C

[Viac]
Vietor 90º 4kt
Viditeľnosť >10km
Počasie -
Oblaky Clouds and Visibility OK
Tlak 1004
Zmeniť No Significant change
Nespracované UARR 231700Z 09002MPS CAVOK 19/14 Q1004 R04/CLRD70 NOSIG RMK QFE749/0999

VFR

20°C / 15°C

[Viac]
Vietor 90º 6kt
Viditeľnosť >10km
Počasie -
Oblaky Clouds and Visibility OK
Tlak 1003
Zmeniť No Significant change
Nespracované UARR 231630Z 09003MPS CAVOK 20/15 Q1003 R04/CLRD70 NOSIG RMK QFE749/0999

VFR

21°C / 14°C

[Viac]
Vietor 80º 6kt
Viditeľnosť >10km
Počasie -
Oblaky Clouds and Visibility OK
Tlak 1003
Zmeniť No Significant change
Nespracované UARR 231600Z 08003MPS CAVOK 21/14 Q1003 R04/CLRD70 NOSIG RMK QFE749/0999

VFR

22°C / 14°C

[Viac]
Vietor 70º 8kt
Viditeľnosť >10km
Počasie -
Oblaky Clouds and Visibility OK
Tlak 1003
Zmeniť No Significant change
Nespracované UARR 231530Z 07004MPS CAVOK 22/14 Q1003 R04/CLRD70 NOSIG RMK QFE749/0998

VFR

23°C / 12°C

[Viac]
Vietor 60º 10kt
Viditeľnosť >10km
Počasie -
Oblaky Clouds and Visibility OK
Tlak 1003
Zmeniť No Significant change
Nespracované UARR 231500Z 06005MPS CAVOK 23/12 Q1003 R04/CLRD70 NOSIG RMK QFE749/0998

VFR

23°C / 12°C

[Viac]
Vietor 50º 12kt
Viditeľnosť >10km
Počasie -
Oblaky Clouds and Visibility OK
Tlak 1002
Zmeniť No Significant change
Nespracované UARR 231430Z 05006MPS CAVOK 23/12 Q1002 R04/CLRD70 NOSIG RMK QFE748/0998

VFR

24°C / 12°C

[Viac]
Vietor 50º 12kt
Viditeľnosť >10km
Počasie -
Oblaky Clouds and Visibility OK
Tlak 1002
Zmeniť No Significant change
Nespracované UARR 231400Z 05006MPS CAVOK 24/12 Q1002 R04/CLRD70 NOSIG RMK QFE748/0998

VFR

23°C / 12°C

[Viac]
Vietor 20º 12kt
Viditeľnosť >10km
Počasie -
Oblaky Clouds and Visibility OK
Tlak 1002
Zmeniť No Significant change
Nespracované UARR 231330Z 02006MPS CAVOK 23/12 Q1002 R04/CLRD70 NOSIG RMK QFE748/0998

VFR

23°C / 13°C

[Viac]
Vietor 20º 12kt
Viditeľnosť >10km
Počasie -
Oblaky Few Clouds 5000ft
Tlak 1002
Zmeniť No Significant change
Nespracované UARR 231300Z 02006MPS 9999 FEW050CB 23/13 Q1002 R04/CLRD70 NOSIG RMK QFE748/0998

VFR

22°C / 15°C

[Viac]
Vietor 30º 10kt
Viditeľnosť >10km
Počasie -
Oblaky Scattered Clouds 5000ft
Tlak 1003
Zmeniť No Significant change
Nespracované UARR 231230Z 03005MPS 9999 SCT050CB 22/15 Q1003 R04/CLRD70 NOSIG RMK QFE749/0998

VFR

22°C / 15°C

[Viac]
Vietor 30º variable 350º to 050º 10kt
Viditeľnosť >10km
Počasie -
Oblaky Scattered Clouds 5000ft
Tlak 1003
Zmeniť No Significant change
Nespracované UARR 231200Z 03005MPS 350V050 9999 SCT050CB 22/15 Q1003 R04/CLRD70 NOSIG RMK QFE749/0999

VFR

21°C / 15°C

[Viac]
Vietor 30º variable 350º to 070º 8kt
Viditeľnosť >10km
Počasie -
Oblaky Scattered Clouds 5000ft
Tlak 1003
Zmeniť No Significant change
Nespracované UARR 231130Z 03004MPS 350V070 9999 SCT050CB 21/15 Q1003 R04/CLRD70 NOSIG RMK QFE749/0999

VFR

21°C / 16°C

[Viac]
Vietor 10º 12kt
Viditeľnosť >10km
Počasie -
Oblaky Scattered Clouds 5000ft
Tlak 1003
Zmeniť No Significant change
Nespracované UARR 231100Z 01006MPS 9999 SCT050CB 21/16 Q1003 R04/CLRD70 NOSIG RMK QFE749/0999

VFR

20°C / 16°C

[Viac]
Vietor 10º 10kt
Viditeľnosť >10km
Počasie -
Oblaky Broken Clouds 5000ft
Tlak 1003
Zmeniť No Significant change
Nespracované UARR 231030Z 01005MPS 9999 BKN050CB 20/16 Q1003 R04/CLRD70 NOSIG RMK QFE749/0999

VFR

20°C / 16°C

[Viac]
Vietor 360º 12kt
Viditeľnosť >10km
Počasie -
Oblaky Overcast 5300ft
Tlak 1003
Zmeniť No Significant change
Nespracované UARR 231000Z 36006MPS 9999 OVC053CB 20/16 Q1003 R04/CLRD70 NOSIG RMK QFE749/0998

VFR

20°C / 16°C

[Viac]
Vietor 350º 12kt
Viditeľnosť >10km
Počasie Light Showers Rain 3.00mm precipitation
Oblaky Vertical Visibility of 0ft.
Tlak 1003
Zmeniť Temporary: Broken Clouds 900ft. RMK QFE749/0998
Nespracované UARR 230930Z 35006MPS 9999 -SHRA OVC051CB 20/16 Q1003 R04/CLRD70 TEMPO BKN009 RMK QFE749/0998

MVFR

20°C / 15°C

[Viac]
Vietor 350º 12kt
Viditeľnosť >10km
Počasie -
Oblaky Broken Clouds 1800ft
Tlak 1003
Zmeniť Temporary: Broken Clouds 900ft. RMK QFE749/0998
Nespracované UARR 230900Z 35006MPS 9999 BKN018CB 20/15 Q1003 R04/CLRD70 TEMPO BKN009 RMK QFE749/0998

MVFR

20°C / 16°C

[Viac]
Vietor 360º 12kt
Viditeľnosť >10km
Počasie -
Oblaky Broken Clouds 1900ft
Tlak 1003
Zmeniť Temporary: Broken Clouds 900ft. RMK QFE748/0998 . Runway 04: Damp, 51-100% contamination with 1mm, friction coefficient 0.60.
Nespracované UARR 230830Z 36006MPS 9999 BKN019CB 20/16 Q1003 R04/190160 TEMPO BKN009 RMK QFE748/0998

Správy TAF pre lokalitu 51.15°S 51.54°V (UARR)

From till


From till Wind variable 4kt. Visibility 10km or more. Nil Significant Cloud.
Temporarly from till Visibility 3100m. Mist . Scattered Clouds 3300ft.
Temporarly from till Wind 360º 10kt.

Nespracované: TAF UARR 232000Z 2321/2406 VRB02MPS CAVOK TEMPO 2321/2403 3100 BR SCT033 TEMPO 2403/2406 36005MPS

Aktuálne satelitné snímky a snímky zrážok pre lokalitu 51.15°S 51.54°V

Značka polohy je umiestnená na51.15°S 51.54°V. [Viac]

Satelitné snímky zhotovované v reálnom čase využívajú viditeľné svetlo počas dňa a infračervené žiarenie počas noci. Vzhľadom na to, že infračervené žiarenie zisťuje teplotné rozdiely, snímka v noci nie je tmavá. Nízke oblaky a hmlu je, žiaľ, ťažké odlíšiť od prízemných teplôt, preto môžu byť počas noci takmer neviditeľné. Meteosat satelitné snímky pre Európu sú aktualizované v reálnom čase každých 5 minút. Snímky z GOES-16/GOES-17 (Severná a Južná Amerika) a Himawari (Ázia) sú aktualizované každých 10 minút.

Copyright 2021 EUMETSAT / meteoblue. / Copyright 2021 meteoblue

Radar a krátkodobá predpoveď zrážok pre 51.15°S 51.54°V

Mrholenie
Slabý
Mierne
Ťažké
Veľmi ťažké
Krúpy

Značka polohy je umiestnená na 51.15°S 51.54°V. Táto animácia ukazuje zrážky pozorované radarom za poslednú hodinu a tiež 1h predpoveď. Mrholenie alebo slabé sneženie môžu byť pre radar neviditeľné. Intenzita zrážok je určená farebným kódom od svetlomodrej po tmavofialovú.